createdAt,value
2022-08-25T00:00:20.518Z,96340.00
2022-08-25T00:02:55.152Z,96346.16
2022-08-25T00:05:27.815Z,96340.97
2022-08-25T00:07:57.210Z,96340.53
2022-08-25T00:10:25.077Z,96334.72
2022-08-25T00:12:54.255Z,96338.19
2022-08-25T00:15:22.810Z,96342.13
2022-08-25T00:17:50.795Z,96336.94
2022-08-25T00:20:18.791Z,96341.78
2022-08-25T00:22:46.542Z,96342.41
2022-08-25T00:25:14.345Z,96339.56
2022-08-25T00:27:43.665Z,96338.34
2022-08-25T00:30:16.731Z,96335.53
2022-08-25T00:32:55.096Z,96333.59
2022-08-25T00:35:26.393Z,96339.84
2022-08-25T00:37:54.172Z,96337.03
2022-08-25T00:40:23.485Z,96336.31
2022-08-25T00:42:51.281Z,96335.81
2022-08-25T00:45:20.404Z,96332.63
2022-08-25T00:47:48.449Z,96329.88
2022-08-25T00:50:17.288Z,96332.56
2022-08-25T00:52:49.189Z,96334.03
2022-08-25T00:55:21.314Z,96331.22
2022-08-25T00:57:57.759Z,96330.38
2022-08-25T01:00:31.060Z,96324.91
2022-08-25T01:02:59.343Z,96323.75
2022-08-25T01:05:28.694Z,96327.16
2022-08-25T01:08:00.274Z,96328.06
2022-08-25T01:10:28.780Z,96316.16
2022-08-25T01:13:03.919Z,96316.31
2022-08-25T01:15:34.393Z,96321.72
2022-08-25T01:18:05.970Z,96313.41
2022-08-25T01:20:34.652Z,96321.41
2022-08-25T01:23:03.794Z,96315.16
2022-08-25T01:25:40.653Z,96313.63
2022-08-25T01:28:08.437Z,96318.66
2022-08-25T01:30:37.582Z,96311.44
2022-08-25T01:33:05.979Z,96310.63
2022-08-25T01:35:34.256Z,96310.75
2022-08-25T01:38:05.931Z,96299.91
2022-08-25T01:40:35.651Z,96305.13
2022-08-25T01:43:13.021Z,96296.94
2022-08-25T01:45:44.150Z,96293.47
2022-08-25T01:48:13.410Z,96291.91
2022-08-25T01:50:42.040Z,96294.47
2022-08-25T01:53:15.457Z,96291.28
2022-08-25T01:55:52.935Z,96289.69
2022-08-25T01:58:23.727Z,96287.47
2022-08-25T02:00:55.774Z,96283.97
2022-08-25T02:03:24.850Z,96290.75
2022-08-25T02:05:53.340Z,96295.16
2022-08-25T02:08:23.335Z,96290.13
2022-08-25T02:10:51.421Z,96281.94
2022-08-25T02:13:20.764Z,96289.69
2022-08-25T02:15:56.410Z,96281.84
2022-08-25T02:18:25.132Z,96291.44
2022-08-25T02:20:54.238Z,96291.94
2022-08-25T02:23:23.438Z,96287.53
2022-08-25T02:25:51.402Z,96285.53
2022-08-25T02:28:19.210Z,96285.16
2022-08-25T02:30:48.078Z,96286.66
2022-08-25T02:33:15.990Z,96288.59
2022-08-25T02:35:43.687Z,96292.34
2022-08-25T02:38:11.515Z,96286.72
2022-08-25T02:40:40.745Z,96295.84
2022-08-25T02:43:08.559Z,96283.34
2022-08-25T02:45:36.750Z,96287.81
2022-08-25T02:48:05.022Z,96286.66
2022-08-25T02:50:33.302Z,96275.91
2022-08-25T02:53:01.070Z,96276.38
2022-08-25T02:55:28.890Z,96282.59
2022-08-25T02:57:57.981Z,96289.63
2022-08-25T03:00:26.360Z,96285.69
2022-08-25T03:02:54.278Z,96291.16
2022-08-25T03:05:22.362Z,96290.34
2022-08-25T03:07:50.091Z,96291.81
2022-08-25T03:10:20.798Z,96292.88
2022-08-25T03:12:48.664Z,96293.75
2022-08-25T03:15:18.424Z,96295.88
2022-08-25T03:17:46.791Z,96295.09
2022-08-25T03:20:15.349Z,96291.16
2022-08-25T03:22:43.320Z,96284.69
2022-08-25T03:25:29.147Z,96277.44
2022-08-25T03:27:56.935Z,96275.06
2022-08-25T03:30:26.696Z,96284.69
2022-08-25T03:32:54.823Z,96277.31
2022-08-25T03:35:22.750Z,96278.69
2022-08-25T03:37:51.112Z,96287.66
2022-08-25T03:40:18.947Z,96284.25
2022-08-25T03:42:47.751Z,96278.78
2022-08-25T03:45:17.747Z,96271.66
2022-08-25T03:47:49.323Z,96266.88
2022-08-25T03:50:18.937Z,96263.69
2022-08-25T03:52:51.083Z,96267.31
2022-08-25T03:55:19.123Z,96269.38
2022-08-25T03:57:46.834Z,96267.53
2022-08-25T04:00:15.050Z,96271.59
2022-08-25T04:02:43.783Z,96269.22
2022-08-25T04:05:13.556Z,96270.44
2022-08-25T04:07:43.755Z,96270.22
2022-08-25T04:10:12.429Z,96265.44
2022-08-25T04:12:40.350Z,96263.31
2022-08-25T04:15:10.586Z,96274.78
2022-08-25T04:17:40.742Z,96278.88
2022-08-25T04:20:11.413Z,96276.63
2022-08-25T04:22:45.112Z,96283.59
2022-08-25T04:25:13.439Z,96274.38
2022-08-25T04:27:41.519Z,96275.28
2022-08-25T04:30:10.784Z,96272.72
2022-08-25T04:32:38.616Z,96271.69
2022-08-25T04:35:07.501Z,96273.00
2022-08-25T04:37:35.426Z,96278.91
2022-08-25T04:40:05.719Z,96276.28
2022-08-25T04:42:33.918Z,96272.41
2022-08-25T04:45:03.900Z,96271.53
2022-08-25T04:47:31.708Z,96262.66
2022-08-25T04:49:59.451Z,96259.91
2022-08-25T04:52:27.192Z,96260.72
2022-08-25T04:54:55.435Z,96258.41
2022-08-25T04:57:24.544Z,96262.38
2022-08-25T04:59:52.454Z,96262.81
2022-08-25T05:02:20.556Z,96272.69
2022-08-25T05:04:48.361Z,96269.34
2022-08-25T05:07:16.149Z,96274.00
2022-08-25T05:09:43.975Z,96274.47
2022-08-25T05:12:11.861Z,96281.13
2022-08-25T05:14:41.760Z,96275.69
2022-08-25T05:17:09.486Z,96267.22
2022-08-25T05:19:37.253Z,96275.19
2022-08-25T05:22:05.109Z,96279.22
2022-08-25T05:24:32.885Z,96266.09
2022-08-25T05:27:00.698Z,96268.13
2022-08-25T05:29:28.484Z,96274.94
2022-08-25T05:31:57.734Z,96276.97
2022-08-25T05:34:25.779Z,96273.50
2022-08-25T05:36:54.492Z,96275.19
2022-08-25T05:39:22.280Z,96275.72
2022-08-25T05:41:50.094Z,96278.19
2022-08-25T05:44:21.168Z,96284.50
2022-08-25T05:46:49.918Z,96280.38
2022-08-25T05:49:19.557Z,96276.19
2022-08-25T05:51:47.322Z,96279.09
2022-08-25T05:54:15.117Z,96273.69
2022-08-25T05:56:42.933Z,96269.09
2022-08-25T05:59:10.729Z,96273.50
2022-08-25T06:01:56.102Z,96264.59
2022-08-25T06:04:25.523Z,96265.09
2022-08-25T06:06:54.764Z,96264.03
2022-08-25T06:09:23.059Z,96260.22
2022-08-25T06:11:54.639Z,96260.72
2022-08-25T06:14:23.863Z,96257.69
2022-08-25T06:16:52.123Z,96263.31
2022-08-25T06:19:21.140Z,96260.75
2022-08-25T06:21:50.744Z,96257.31
2022-08-25T06:24:18.450Z,96256.22
2022-08-25T06:26:46.330Z,96256.72
2022-08-25T06:29:14.930Z,96254.91
2022-08-25T06:31:43.418Z,96251.19
2022-08-25T06:34:12.306Z,96250.22
2022-08-25T06:36:40.293Z,96252.63
2022-08-25T06:39:10.599Z,96254.78
2022-08-25T06:41:39.109Z,96251.00
2022-08-25T06:44:07.199Z,96246.47
2022-08-25T06:46:37.112Z,96244.69
2022-08-25T06:49:06.043Z,96239.78
2022-08-25T06:51:36.001Z,96246.03
2022-08-25T06:54:05.113Z,96243.84
2022-08-25T06:56:35.144Z,96253.03
2022-08-25T06:59:03.710Z,96249.97
2022-08-25T07:01:32.119Z,96255.16
2022-08-25T07:04:04.869Z,96256.84
2022-08-25T07:06:36.024Z,96258.88
2022-08-25T07:09:06.205Z,96250.41
2022-08-25T07:11:35.900Z,96258.75
2022-08-25T07:14:06.807Z,96255.75
2022-08-25T07:16:35.054Z,96253.06
2022-08-25T07:19:03.203Z,96256.72
2022-08-25T07:21:35.555Z,96243.44
2022-08-25T07:24:06.891Z,96244.34
2022-08-25T07:26:38.609Z,96250.75
2022-08-25T07:29:10.424Z,96250.81
2022-08-25T07:31:38.356Z,96251.25
2022-08-25T07:34:24.277Z,96257.25
2022-08-25T07:36:53.542Z,96258.16
2022-08-25T07:39:21.991Z,96262.97
2022-08-25T07:41:52.436Z,96256.78
2022-08-25T07:44:22.582Z,96256.88
2022-08-25T07:46:50.927Z,96264.03
2022-08-25T07:49:23.204Z,96257.47
2022-08-25T07:52:04.390Z,96272.88
2022-08-25T07:54:34.528Z,96268.22
2022-08-25T07:57:04.384Z,96264.34
2022-08-25T07:59:39.231Z,96267.09
2022-08-25T08:02:09.265Z,96265.16
2022-08-25T08:04:46.238Z,96255.44
2022-08-25T08:07:14.063Z,96258.63
2022-08-25T08:09:41.777Z,96260.66
2022-08-25T08:12:11.896Z,96263.94
2022-08-25T08:14:44.993Z,96261.25
2022-08-25T08:17:14.335Z,96259.69
2022-08-25T08:19:45.291Z,96250.75
2022-08-25T08:22:15.587Z,96248.81
2022-08-25T08:24:54.787Z,96253.22
2022-08-25T08:27:25.684Z,96253.25
2022-08-25T08:29:53.659Z,96247.78
2022-08-25T08:32:25.220Z,96258.81
2022-08-25T08:35:03.372Z,96254.97
2022-08-25T08:37:31.368Z,96250.66
2022-08-25T08:40:01.485Z,96245.94
2022-08-25T08:42:57.679Z,96258.16
2022-08-25T08:45:40.560Z,96257.00
2022-08-25T08:48:44.248Z,96259.38
2022-08-25T08:51:22.924Z,96257.03
2022-08-25T08:53:57.391Z,96260.97
2022-08-25T08:56:30.850Z,96262.97
2022-08-25T08:59:06.363Z,96256.63
2022-08-25T09:01:36.669Z,96259.78
2022-08-25T09:04:10.321Z,96258.19
2022-08-25T09:06:42.544Z,96261.31
2022-08-25T09:09:15.300Z,96262.88
2022-08-25T09:11:59.207Z,96255.00
2022-08-25T09:14:40.786Z,96258.13
2022-08-25T09:17:21.551Z,96252.88
2022-08-25T09:20:18.368Z,96257.56
2022-08-25T09:23:00.147Z,96257.84
2022-08-25T09:25:54.409Z,96249.88
2022-08-25T09:28:29.699Z,96247.47
2022-08-25T09:31:02.526Z,96244.53
2022-08-25T09:33:35.413Z,96242.44
2022-08-25T09:36:06.192Z,96238.75
2022-08-25T09:38:34.760Z,96228.72
2022-08-25T09:41:03.204Z,96224.19
2022-08-25T09:43:33.689Z,96225.19
2022-08-25T09:46:10.365Z,96226.56
2022-08-25T09:48:46.590Z,96223.50
2022-08-25T09:51:24.242Z,96221.84
2022-08-25T09:53:56.619Z,96214.34
2022-08-25T09:56:27.461Z,96216.75
2022-08-25T09:59:03.040Z,96208.22
2022-08-25T10:01:35.014Z,96203.63
2022-08-25T10:04:05.670Z,96199.47
2022-08-25T10:06:43.699Z,96201.72
2022-08-25T10:09:29.354Z,96194.72
2022-08-25T10:12:01.049Z,96192.72
2022-08-25T10:14:36.227Z,96192.34
2022-08-25T10:17:24.736Z,96195.94
2022-08-25T10:20:13.104Z,96193.13
2022-08-25T10:22:42.843Z,96194.84
2022-08-25T10:25:13.308Z,96197.38
2022-08-25T10:28:11.343Z,96198.34
2022-08-25T10:30:51.542Z,96183.91
2022-08-25T10:33:31.674Z,96182.34
2022-08-25T10:36:06.506Z,96174.66
2022-08-25T10:38:42.924Z,96173.59
2022-08-25T10:41:27.371Z,96175.63
2022-08-25T10:44:03.636Z,96168.97
2022-08-25T10:46:42.042Z,96165.31
2022-08-25T10:49:19.370Z,96166.88
2022-08-25T10:51:56.771Z,96158.84
2022-08-25T10:54:38.398Z,96161.81
2022-08-25T10:57:16.811Z,96164.25
2022-08-25T10:59:58.316Z,96153.59
2022-08-25T11:02:50.410Z,96145.19
2022-08-25T11:05:27.227Z,96138.00
2022-08-25T11:08:02.295Z,96135.38
2022-08-25T11:10:40.604Z,96134.19
2022-08-25T11:13:15.550Z,96139.66
2022-08-25T11:16:13.664Z,96142.25
2022-08-25T11:18:47.610Z,96131.84
2022-08-25T11:21:24.368Z,96138.13
2022-08-25T11:24:00.149Z,96135.25
2022-08-25T11:26:37.037Z,96134.69
2022-08-25T11:29:11.593Z,96138.03
2022-08-25T11:31:44.119Z,96132.84
2022-08-25T11:34:15.885Z,96131.66
2022-08-25T11:36:53.523Z,96139.22
2022-08-25T11:39:40.349Z,96136.16
2022-08-25T11:42:20.461Z,96137.69
2022-08-25T11:45:02.390Z,96125.91
2022-08-25T11:47:58.450Z,96140.03
2022-08-25T11:50:31.215Z,96146.13
2022-08-25T11:53:23.716Z,96141.94
2022-08-25T11:56:02.291Z,96134.31
2022-08-25T11:58:35.536Z,96142.25
2022-08-25T12:01:06.936Z,96130.16
2022-08-25T12:03:54.073Z,96129.19
2022-08-25T12:06:29.411Z,96126.59
2022-08-25T12:09:22.909Z,96127.09
2022-08-25T12:11:58.841Z,96117.91
2022-08-25T12:14:47.939Z,96123.91
2022-08-25T12:17:25.654Z,96127.06
2022-08-25T12:19:59.756Z,96131.13
2022-08-25T12:22:58.411Z,96115.06
2022-08-25T12:25:45.507Z,96115.06
2022-08-25T12:28:41.906Z,96107.94
2022-08-25T12:31:23.925Z,96106.97
2022-08-25T12:34:09.259Z,96106.63
2022-08-25T12:36:40.715Z,96106.16
2022-08-25T12:39:17.822Z,96108.66
2022-08-25T12:41:57.837Z,96110.50
2022-08-25T12:44:40.096Z,96105.81
2022-08-25T12:47:14.394Z,96100.28
2022-08-25T12:49:42.624Z,96095.69
2022-08-25T12:52:16.930Z,96099.88
2022-08-25T12:54:49.675Z,96097.81
2022-08-25T12:57:41.190Z,96101.63
2022-08-25T13:00:18.482Z,96107.88
2022-08-25T13:03:26.328Z,96104.69
2022-08-25T13:06:09.317Z,96097.94
2022-08-25T13:09:08.259Z,96098.41
2022-08-25T13:11:43.187Z,96093.69
2022-08-25T13:14:20.217Z,96092.56
2022-08-25T13:16:55.591Z,96079.88
2022-08-25T13:19:24.257Z,96077.38
2022-08-25T13:21:54.613Z,96080.44
2022-08-25T13:24:26.655Z,96084.50
2022-08-25T13:26:57.098Z,96078.31
2022-08-25T13:29:29.344Z,96079.16
2022-08-25T13:32:09.302Z,96072.31
2022-08-25T13:34:42.921Z,96074.63
2022-08-25T13:37:33.184Z,96074.56
2022-08-25T13:40:17.776Z,96074.72
2022-08-25T13:42:54.435Z,96065.56
2022-08-25T13:45:27.626Z,96062.03
2022-08-25T13:47:56.847Z,96062.63
2022-08-25T13:50:33.250Z,96054.34
2022-08-25T13:53:04.779Z,96054.00
2022-08-25T13:55:38.125Z,96056.50
2022-08-25T13:58:24.326Z,96051.06
2022-08-25T14:01:23.217Z,96061.25
2022-08-25T14:04:01.135Z,96054.97
2022-08-25T14:06:29.537Z,96049.66
2022-08-25T14:09:16.024Z,96050.00
2022-08-25T14:11:48.042Z,96056.69
2022-08-25T14:14:32.327Z,96049.03
2022-08-25T14:17:22.286Z,96045.03
2022-08-25T14:19:56.252Z,96050.59
2022-08-25T14:22:24.204Z,96046.53
2022-08-25T14:24:54.275Z,96047.25
2022-08-25T14:27:22.187Z,96048.16
2022-08-25T14:29:52.847Z,96042.75
2022-08-25T14:32:22.730Z,96035.38
2022-08-25T14:34:50.486Z,96037.34
2022-08-25T14:37:20.612Z,96034.47
2022-08-25T14:39:54.582Z,96032.66
2022-08-25T14:42:22.659Z,96032.22
2022-08-25T14:44:53.209Z,96029.38
2022-08-25T14:47:22.403Z,96033.50
2022-08-25T14:49:51.968Z,96026.75
2022-08-25T14:52:22.710Z,96030.97
2022-08-25T14:54:50.687Z,96024.06
2022-08-25T14:57:42.587Z,96015.09
2022-08-25T15:00:12.122Z,96023.81
2022-08-25T15:02:44.744Z,96015.75
2022-08-25T15:05:17.169Z,96008.41
2022-08-25T15:08:05.630Z,96015.38
2022-08-25T15:10:35.203Z,96008.81
2022-08-25T15:13:02.991Z,96009.44
2022-08-25T15:15:32.883Z,96010.03
2022-08-25T15:18:02.338Z,96005.81
2022-08-25T15:20:30.338Z,96010.13
2022-08-25T15:22:58.575Z,96007.72
2022-08-25T15:25:26.615Z,96003.94
2022-08-25T15:27:55.203Z,95999.16
2022-08-25T15:30:22.939Z,95999.78
2022-08-25T15:32:59.216Z,95995.09
2022-08-25T15:35:29.078Z,95998.91
2022-08-25T15:37:57.480Z,95995.31
2022-08-25T15:40:25.601Z,95989.50
2022-08-25T15:42:53.408Z,95986.19
2022-08-25T15:45:23.639Z,95988.41
2022-08-25T15:47:54.084Z,95986.88
2022-08-25T15:50:26.039Z,95990.22
2022-08-25T15:52:55.432Z,95978.38
2022-08-25T15:55:23.187Z,95977.72
2022-08-25T15:57:51.408Z,95977.63
2022-08-25T16:00:21.521Z,95981.28
2022-08-25T16:02:49.629Z,95985.97
2022-08-25T16:05:17.457Z,95988.00
2022-08-25T16:07:51.583Z,95984.84
2022-08-25T16:10:21.299Z,95976.94
2022-08-25T16:12:49.743Z,95980.50
2022-08-25T16:15:17.515Z,95978.47
2022-08-25T16:17:50.559Z,95982.53
2022-08-25T16:20:20.752Z,95971.63
2022-08-25T16:22:51.646Z,95971.31
2022-08-25T16:25:21.985Z,95975.03
2022-08-25T16:27:49.790Z,95973.34
2022-08-25T16:30:17.895Z,95963.53
2022-08-25T16:32:46.524Z,95963.28
2022-08-25T16:35:14.942Z,95960.63
2022-08-25T16:37:42.841Z,95959.84
2022-08-25T16:40:13.595Z,95948.25
2022-08-25T16:42:45.043Z,95953.47
2022-08-25T16:45:12.885Z,95956.88
2022-08-25T16:47:42.577Z,95949.16
2022-08-25T16:50:11.579Z,95945.88
2022-08-25T16:52:58.248Z,95938.94
2022-08-25T16:55:39.183Z,95946.22
2022-08-25T16:58:12.633Z,95948.75
2022-08-25T17:00:41.669Z,95944.13
2022-08-25T17:03:12.890Z,95944.19
2022-08-25T17:05:43.296Z,95952.28
2022-08-25T17:08:29.454Z,95942.13
2022-08-25T17:11:06.429Z,95942.63
2022-08-25T17:13:36.826Z,95941.16
2022-08-25T17:16:05.277Z,95939.69
2022-08-25T17:18:33.729Z,95933.84
2022-08-25T17:21:03.903Z,95935.56
2022-08-25T17:23:33.074Z,95941.38
2022-08-25T17:26:02.384Z,95935.88
2022-08-25T17:28:30.490Z,95951.19
2022-08-25T17:30:59.844Z,95947.34
2022-08-25T17:33:28.162Z,95948.41
2022-08-25T17:35:57.926Z,95939.41
2022-08-25T17:38:28.439Z,95936.78
2022-08-25T17:40:58.259Z,95943.59
2022-08-25T17:43:27.684Z,95946.50
2022-08-25T17:45:57.481Z,95945.44
2022-08-25T17:48:26.949Z,95949.69
2022-08-25T17:50:55.587Z,95945.13
2022-08-25T17:53:23.387Z,95944.88
2022-08-25T17:56:00.253Z,95954.88
2022-08-25T17:58:29.724Z,95949.09
2022-08-25T18:00:58.290Z,95953.31
2022-08-25T18:03:28.319Z,95948.69
2022-08-25T18:05:56.521Z,95955.84
2022-08-25T18:08:29.237Z,95944.88
2022-08-25T18:11:03.287Z,95953.84
2022-08-25T18:13:31.496Z,95952.81
2022-08-25T18:15:59.360Z,95955.66
2022-08-25T18:18:28.763Z,95960.25
2022-08-25T18:20:56.754Z,95962.44
2022-08-25T18:23:24.911Z,95964.16
2022-08-25T18:25:53.179Z,95968.91
2022-08-25T18:28:29.035Z,95961.84
2022-08-25T18:30:57.157Z,95969.91
2022-08-25T18:33:25.627Z,95961.31
2022-08-25T18:35:59.781Z,95966.19
2022-08-25T18:38:44.819Z,95969.91
2022-08-25T18:41:13.359Z,95965.28
2022-08-25T18:43:41.185Z,95969.72
2022-08-25T18:46:09.094Z,95973.38
2022-08-25T18:48:38.188Z,95973.13
2022-08-25T18:51:07.462Z,95982.25
2022-08-25T18:53:50.099Z,95975.19
2022-08-25T18:56:19.170Z,95970.16
2022-08-25T18:58:47.573Z,95973.41
2022-08-25T19:01:15.663Z,95983.44
2022-08-25T19:03:44.036Z,95977.91
2022-08-25T19:06:13.415Z,95978.31
2022-08-25T19:08:43.176Z,95984.72
2022-08-25T19:11:11.151Z,95986.28
2022-08-25T19:13:40.817Z,95985.94
2022-08-25T19:16:13.918Z,95980.03
2022-08-25T19:18:47.413Z,95991.13
2022-08-25T19:21:20.508Z,95984.47
2022-08-25T19:23:50.942Z,95989.22
2022-08-25T19:26:20.858Z,95985.66
2022-08-25T19:28:49.686Z,95982.13
2022-08-25T19:31:18.262Z,95979.38
2022-08-25T19:33:46.916Z,95977.44
2022-08-25T19:36:17.849Z,95983.78
2022-08-25T19:38:49.303Z,95973.94
2022-08-25T19:41:19.850Z,95977.09
2022-08-25T19:43:56.262Z,95974.34
2022-08-25T19:46:25.780Z,95978.69
2022-08-25T19:49:07.162Z,95973.97
2022-08-25T19:51:38.053Z,95984.97
2022-08-25T19:54:09.250Z,95980.66
2022-08-25T19:56:53.695Z,95977.50
2022-08-25T19:59:22.738Z,95982.63
2022-08-25T20:01:53.390Z,95982.63
2022-08-25T20:04:24.156Z,95975.94
2022-08-25T20:06:55.324Z,95975.53
2022-08-25T20:09:38.859Z,95983.41
2022-08-25T20:12:10.253Z,95983.81
2022-08-25T20:14:38.661Z,95981.06
2022-08-25T20:17:14.457Z,95992.44
2022-08-25T20:19:52.415Z,95982.22
2022-08-25T20:22:25.840Z,95989.31
2022-08-25T20:24:55.910Z,95989.69
2022-08-25T20:27:29.184Z,96000.69
2022-08-25T20:29:57.041Z,96003.00
2022-08-25T20:32:25.056Z,95997.50
2022-08-25T20:34:55.822Z,95995.56
2022-08-25T20:37:25.750Z,95995.53
2022-08-25T20:39:54.871Z,95989.63
2022-08-25T20:42:22.908Z,95996.28
2022-08-25T20:44:50.691Z,95999.06
2022-08-25T20:47:20.601Z,95991.56
2022-08-25T20:49:50.324Z,95996.28
2022-08-25T20:52:19.624Z,95999.44
2022-08-25T20:54:49.577Z,96003.75
2022-08-25T20:57:19.213Z,96000.97
2022-08-25T20:59:54.581Z,95998.19
2022-08-25T21:02:22.901Z,96000.56
2022-08-25T21:04:52.460Z,95997.44
2022-08-25T21:07:21.225Z,95989.53
2022-08-25T21:09:53.451Z,95994.25
2022-08-25T21:12:22.124Z,95998.94
2022-08-25T21:14:50.672Z,95995.84
2022-08-25T21:17:19.258Z,95989.53
2022-08-25T21:22:16.860Z,95993.88
2022-08-25T21:24:45.372Z,95993.44
2022-08-25T21:27:14.709Z,96006.78
2022-08-25T21:29:44.531Z,96004.81
2022-08-25T21:32:22.176Z,96012.63
2022-08-25T21:34:52.892Z,95998.47
2022-08-25T21:37:21.472Z,95998.09
2022-08-25T21:39:49.410Z,95999.63
2022-08-25T21:42:18.891Z,95998.03
2022-08-25T21:44:46.713Z,96001.22
2022-08-25T21:47:14.572Z,96000.03
2022-08-25T21:49:42.589Z,96000.03
2022-08-25T21:52:10.843Z,95993.78
2022-08-25T21:54:39.018Z,95991.03
2022-08-25T21:57:07.769Z,95989.47
2022-08-25T21:59:40.242Z,95989.41
2022-08-25T22:02:11.165Z,95998.03
2022-08-25T22:04:40.102Z,95998.81
2022-08-25T22:07:08.624Z,95998.81
2022-08-25T22:09:36.983Z,95997.19
2022-08-25T22:12:05.819Z,95995.97
2022-08-25T22:14:33.854Z,95992.44
2022-08-25T22:17:03.888Z,95994.78
2022-08-25T22:19:31.760Z,95997.13
2022-08-25T22:22:01.538Z,95993.94
2022-08-25T22:24:29.325Z,95988.03
2022-08-25T22:26:57.264Z,95993.50
2022-08-25T22:29:26.691Z,95989.59
2022-08-25T22:31:59.332Z,95990.75
2022-08-25T22:34:33.133Z,95993.47
2022-08-25T22:37:01.368Z,95982.06
2022-08-25T22:39:29.772Z,95979.34
2022-08-25T22:41:57.657Z,95986.41
2022-08-25T22:44:27.148Z,95988.34
2022-08-25T22:46:55.000Z,95986.84
2022-08-25T22:49:22.896Z,95982.06
2022-08-25T22:51:55.157Z,95982.88
2022-08-25T22:54:25.451Z,95979.75
2022-08-25T22:56:53.985Z,95982.09
2022-08-25T22:59:22.172Z,95973.47
2022-08-25T23:01:52.352Z,95973.34
2022-08-25T23:04:20.640Z,95974.09
2022-08-25T23:06:48.822Z,95967.41
2022-08-25T23:09:18.711Z,95973.72
2022-08-25T23:11:46.548Z,95968.63
2022-08-25T23:14:14.440Z,95971.75
2022-08-25T23:16:44.148Z,95970.16
2022-08-25T23:19:13.996Z,95974.09
2022-08-25T23:22:02.169Z,95973.25
2022-08-25T23:24:32.191Z,95967.00
2022-08-25T23:27:01.924Z,95963.84
2022-08-25T23:29:30.806Z,95970.06
2022-08-25T23:31:59.654Z,95974.00
2022-08-25T23:34:28.701Z,95966.16
2022-08-25T23:36:56.924Z,95965.00
2022-08-25T23:39:25.422Z,95969.31
2022-08-25T23:41:54.792Z,95964.22
2022-08-25T23:44:24.538Z,95960.66
2022-08-25T23:46:53.990Z,95956.75
2022-08-25T23:49:23.968Z,95955.94
2022-08-25T23:51:53.339Z,95952.00
2022-08-25T23:54:21.732Z,95959.75
2022-08-25T23:57:00.378Z,95961.22
2022-08-25T23:59:29.656Z,95961.56
